Nrc Patriot II — WDA8587 — position and weather

sailwx.info

Track history (hours):
 
Tides and Currents Weather Stations Pressure Air Temp Water Temp Dewpoint Dewpoint Depression Visibility Wind Speed Wind Dir Waves Ship Positions

Nrc Patriot II

Owner: National Response Corporation, The Woodlands, TX. More information available from US FCC via Universal Licensing System and Coast Guard Vessel Documentation Center.

Last reported at 2016-Sep-24 21:20 UTC. Time now 2016-Sep-27 20:46 UTC.
Position N 34°10' W 119°13'.

Length 30 m; draft 3.5 m.

Type: Port tender. MMSI: 366855940.

Date/timePositionNaut miles runAvg speedWind from/ knotsBaromVisibWave heightAir tempDewpointWater temp
2016-Sep-24 21:20N 34°10' W 119°13'  
2016-Sep-21 03:28N 34°10' W 119°13'0 0.0
2016-Sep-19 16:28N 34°10' W 119°13'0 0.0
2016-Sep-19 12:25N 34°10' W 119°13'0 0.0
2016-Sep-19 07:25N 34°10' W 119°13'0 0.0
2016-Sep-19 00:31N 34°10' W 119°13'0 0.0
2016-Sep-18 19:13N 34°10' W 119°13'0 0.0
2016-Sep-18 15:31N 34°10' W 119°13'0 0.0
2016-Sep-18 14:31N 34°10' W 119°13'0 0.0
2016-Sep-18 09:19N 34°10' W 119°13'0 0.0
2016-Sep-18 02:31N 34°10' W 119°13'1 0.2
2016-Sep-17 22:33N 34°09' W 119°14'9 9.3
2016-Sep-17 21:33N 34°04' W 119°05'10 9.6
2016-Sep-17 20:33N 33°59' W 118°55'11 8.3
2016-Sep-17 19:16N 33°53' W 118°44'25 4.3
2016-Sep-17 13:31N 33°44' W 118°16'0 0.0
2016-Sep-17 10:10N 33°44' W 118°16'0 0.0
2016-Sep-17 09:25N 33°44' W 118°16'0 0.0
2016-Sep-17 08:31N 33°44' W 118°16'0 0.0
2016-Sep-17 07:31N 33°44' W 118°16'0 0.0
2016-Sep-17 05:31N 33°44' W 118°16'0 0.0
2016-Sep-17 04:28N 33°44' W 118°16'0 0.0
2016-Sep-17 00:28N 33°44' W 118°16'1 0.1
2016-Sep-16 17:31N 33°43' W 118°17'0 0.0
2016-Sep-16 03:31N 33°43' W 118°17'0 0.0
2016-Sep-16 02:04N 33°43' W 118°17'0 0.0
2016-Sep-16 00:31N 33°43' W 118°17'0 0.0
2016-Sep-15 22:31N 33°43' W 118°17'0 0.0
2016-Sep-15 21:28N 33°43' W 118°17'0 0.0
2016-Sep-15 20:31N 33°43' W 118°17'0 0.0
2016-Sep-15 04:31N 33°43' W 118°17'0 0.0
2016-Sep-15 01:31N 33°43' W 118°17'  
Track history (hours):
 
Tides and Currents Weather Stations Pressure Air Temp Water Temp Dewpoint Dewpoint Depression Visibility Wind Speed Wind Dir Waves Ship Positions

Nrc Patriot II

Owner: National Response Corporation, The Woodlands, TX. More information available from US FCC via Universal Licensing System and Coast Guard Vessel Documentation Center.

Last reported at 2016-Sep-24 21:20 UTC. Time now 2016-Sep-27 20:46 UTC.
Position N 34°10' W 119°13'.

Length 30 m; draft 3.5 m.

Type: Port tender. MMSI: 366855940.

Date/timePositionNaut miles runAvg speedWind from/ knotsBaromVisibWave heightAir tempDewpointWater temp
2016-Sep-24 21:20N 34°10' W 119°13'  
2016-Sep-21 03:28N 34°10' W 119°13'0 0.0
2016-Sep-19 16:28N 34°10' W 119°13'0 0.0
2016-Sep-19 12:25N 34°10' W 119°13'0 0.0
2016-Sep-19 07:25N 34°10' W 119°13'0 0.0
2016-Sep-19 00:31N 34°10' W 119°13'0 0.0
2016-Sep-18 19:13N 34°10' W 119°13'0 0.0
2016-Sep-18 15:31N 34°10' W 119°13'0 0.0
2016-Sep-18 14:31N 34°10' W 119°13'0 0.0
2016-Sep-18 09:19N 34°10' W 119°13'0 0.0
2016-Sep-18 02:31N 34°10' W 119°13'1 0.2
2016-Sep-17 22:33N 34°09' W 119°14'9 9.3
2016-Sep-17 21:33N 34°04' W 119°05'10 9.6
2016-Sep-17 20:33N 33°59' W 118°55'11 8.3
2016-Sep-17 19:16N 33°53' W 118°44'25 4.3
2016-Sep-17 13:31N 33°44' W 118°16'0 0.0
2016-Sep-17 10:10N 33°44' W 118°16'0 0.0
2016-Sep-17 09:25N 33°44' W 118°16'0 0.0
2016-Sep-17 08:31N 33°44' W 118°16'0 0.0
2016-Sep-17 07:31N 33°44' W 118°16'0 0.0
2016-Sep-17 05:31N 33°44' W 118°16'0 0.0
2016-Sep-17 04:28N 33°44' W 118°16'0 0.0
2016-Sep-17 00:28N 33°44' W 118°16'1 0.1
2016-Sep-16 17:31N 33°43' W 118°17'0 0.0
2016-Sep-16 03:31N 33°43' W 118°17'0 0.0
2016-Sep-16 02:04N 33°43' W 118°17'0 0.0
2016-Sep-16 00:31N 33°43' W 118°17'0 0.0
2016-Sep-15 22:31N 33°43' W 118°17'0 0.0
2016-Sep-15 21:28N 33°43' W 118°17'0 0.0
2016-Sep-15 20:31N 33°43' W 118°17'0 0.0
2016-Sep-15 04:31N 33°43' W 118°17'0 0.0
2016-Sep-15 01:31N 33°43' W 118°17'  

Dump ship's entire track history